Time;durP1;ratioP1;P1;durP2;ratioP2;P2;SDS_P1;SDS_P2;PMS_P1;PMS_P2;Temp;Humidity;BMP_temperature;BMP_pressure;BME280_temperature;BME280_humidity;BME280_pressure;Samples;Min_cycle;Max_cycle;Signal;HPM_P1;HPM_P2
2021/06/28 00:00:14;;;;;;;4.72;3.58;;;;;;;22.99;64.42;99665.75;2231394;40;20044;-81
2021/06/28 00:01:46;;;;;;;5.82;3.50;;;;;;;23.02;64.06;99669.91;2228360;40;20122;-81
2021/06/28 00:03:18;;;;;;;6.93;4.00;;;;;;;23.09;63.63;99669.78;2232267;40;20375;-80
2021/06/28 00:04:50;;;;;;;6.97;3.22;;;;;;;23.14;63.27;99657.13;2232857;40;20025;-78
2021/06/28 00:06:22;;;;;;;5.20;3.60;;;;;;;23.15;63.17;99661.47;2231200;40;20036;-82
2021/06/28 00:07:53;;;;;;;6.10;3.30;;;;;;;23.17;62.70;99661.25;2232860;40;20339;-81
2021/06/28 00:09:24;;;;;;;4.38;3.05;;;;;;;23.18;62.44;99658.31;2230677;40;20167;-82
2021/06/28 00:10:56;;;;;;;5.13;3.45;;;;;;;23.21;62.33;99663.31;2233129;40;20025;-81
2021/06/28 00:12:27;;;;;;;5.32;3.47;;;;;;;23.23;62.10;99664.97;2227766;40;20033;-80
2021/06/28 00:13:59;;;;;;;5.20;3.25;;;;;;;23.25;61.68;99660.06;2229362;40;20036;-79
2021/06/28 00:15:37;;;;;;;6.40;3.17;;;;;;;23.29;61.42;99658.56;2227576;40;20033;-79
2021/06/28 00:17:09;;;;;;;4.97;2.95;;;;;;;23.31;61.25;99651.78;2228844;40;20056;-80
2021/06/28 00:18:42;;;;;;;4.68;2.95;;;;;;;23.34;61.06;99661.38;2228243;40;20089;-79
2021/06/28 00:20:14;;;;;;;4.85;3.08;;;;;;;23.31;60.85;99665.41;2227935;40;20025;-78
2021/06/28 00:21:46;;;;;;;4.57;3.10;;;;;;;23.32;60.75;99663.53;2228872;40;20112;-84
2021/06/28 00:23:17;;;;;;;5.40;3.20;;;;;;;23.35;60.62;99657.59;2227604;40;20405;-80
2021/06/28 00:24:49;;;;;;;5.57;2.90;;;;;;;23.34;60.64;99666.84;2228674;40;20054;-82
2021/06/28 00:26:21;;;;;;;4.55;2.97;;;;;;;23.35;60.48;99665.75;2227629;40;20110;-82
2021/06/28 00:27:52;;;;;;;4.45;3.00;;;;;;;23.34;60.39;99666.84;2228492;40;20036;-82
2021/06/28 00:29:23;;;;;;;5.95;3.10;;;;;;;23.33;60.36;99655.09;2227125;40;20056;-82
2021/06/28 00:30:57;;;;;;;4.40;2.70;;;;;;;23.34;60.22;99662.22;2228211;40;20037;-81
2021/06/28 00:32:28;;;;;;;4.43;2.70;;;;;;;23.31;60.22;99661.88;2228590;40;20051;-81
2021/06/28 00:34:01;;;;;;;4.15;2.45;;;;;;;23.31;60.22;99661.88;2228613;40;20037;-81
2021/06/28 00:35:33;;;;;;;4.22;3.15;;;;;;;23.29;59.98;99655.81;2232226;40;20043;-80
2021/06/28 00:37:05;;;;;;;4.40;2.55;;;;;;;23.30;59.79;99655.56;2232468;40;20048;-81
2021/06/28 00:38:36;;;;;;;3.92;2.50;;;;;;;23.33;59.75;99654.28;2233655;40;20037;-81
2021/06/28 00:40:10;;;;;;;3.88;2.50;;;;;;;23.35;59.75;99647.53;2229873;40;20055;-80
2021/06/28 00:41:43;;;;;;;6.07;2.70;;;;;;;23.38;59.50;99657.13;2228058;40;20437;-81
2021/06/28 00:43:15;;;;;;;4.63;2.35;;;;;;;23.39;59.11;99653.31;2228315;40;20029;-81
2021/06/28 00:44:46;;;;;;;6.93;2.28;;;;;;;23.42;59.09;99646.56;2228540;40;20021;-80
2021/06/28 00:46:19;;;;;;;6.18;2.58;;;;;;;23.40;58.99;99654.13;2226230;40;20052;-81
2021/06/28 00:47:52;;;;;;;3.95;2.38;;;;;;;23.39;58.78;99642.41;2228532;40;20063;-83
2021/06/28 00:49:24;;;;;;;5.60;2.47;;;;;;;23.39;58.62;99642.41;2226483;40;20048;-81
2021/06/28 00:50:56;;;;;;;4.93;2.38;;;;;;;23.37;58.36;99641.81;2229788;40;20301;-82
2021/06/28 00:52:27;;;;;;;4.40;2.70;;;;;;;23.35;58.26;99650.25;2228897;40;20040;-82
2021/06/28 00:54:00;;;;;;;4.75;2.50;;;;;;;23.36;57.99;99643.72;2226923;40;20049;-80
2021/06/28 00:55:31;;;;;;;4.47;2.45;;;;;;;23.36;58.03;99641.00;2229054;40;20490;-79
2021/06/28 00:57:04;;;;;;;3.72;2.15;;;;;;;23.37;57.61;99650.00;2227098;40;20051;-78
2021/06/28 00:58:36;;;;;;;3.97;2.00;;;;;;;23.35;57.69;99644.78;2228272;40;20033;-77
2021/06/28 01:00:09;;;;;;;3.55;1.95;;;;;;;23.36;57.07;99648.34;2227063;40;20063;-79
2021/06/28 01:01:43;;;;;;;5.50;1.80;;;;;;;23.38;56.91;99639.94;2228045;40;20453;-81
2021/06/28 01:03:14;;;;;;;3.35;1.73;;;;;;;23.39;56.55;99636.97;2227329;40;20063;-77
2021/06/28 01:04:45;;;;;;;3.45;1.92;;;;;;;23.40;56.24;99633.16;2228181;40;20052;-78
2021/06/28 01:06:17;;;;;;;3.92;1.88;;;;;;;23.38;56.25;99629.03;2227406;40;20045;-78
2021/06/28 01:07:48;;;;;;;3.42;1.80;;;;;;;23.35;55.84;99633.03;2227166;40;20039;-80
2021/06/28 01:09:20;;;;;;;4.65;1.92;;;;;;;23.34;55.82;99629.50;2226894;40;20356;-80
2021/06/28 01:10:52;;;;;;;3.47;1.73;;;;;;;23.34;55.77;99632.22;2225982;40;20037;-80
2021/06/28 01:12:23;;;;;;;4.72;1.75;;;;;;;23.35;55.74;99633.88;2227033;40;20389;-81
2021/06/28 01:13:55;;;;;;;4.15;1.65;;;;;;;23.37;55.13;99630.91;2226523;40;20036;-81
2021/06/28 01:15:27;;;;;;;2.90;1.50;;;;;;;23.35;55.33;99630.31;2228067;40;20037;-82
2021/06/28 01:17:01;;;;;;;3.00;1.55;;;;;;;23.35;55.09;99624.88;2225697;40;20048;-80
2021/06/28 01:18:32;;;;;;;5.15;1.70;;;;;;;23.33;54.95;99627.03;2227876;40;20051;-81
2021/06/28 01:20:08;;;;;;;3.10;1.40;;;;;;;23.33;54.97;99632.47;2225605;40;20463;-80
2021/06/28 01:21:42;;;;;;;2.90;1.45;;;;;;;23.31;54.82;99621.78;2228545;40;20129;-81
2021/06/28 01:23:20;;;;;;;3.72;1.70;;;;;;;23.32;54.75;99633.53;2228135;40;20048;-81
2021/06/28 01:24:52;;;;;;;3.38;1.67;;;;;;;23.31;54.95;99623.69;2229837;40;20029;-81
2021/06/28 01:26:24;;;;;;;4.43;1.50;;;;;;;23.30;54.68;99627.50;2229313;40;20037;-82
2021/06/28 01:27:56;;;;;;;3.17;1.63;;;;;;;23.30;54.60;99619.31;2229462;40;20052;-83
2021/06/28 01:29:27;;;;;;;2.72;1.45;;;;;;;23.32;54.42;99625.38;2230563;40;20045;-81
2021/06/28 01:31:00;;;;;;;3.28;1.42;;;;;;;23.34;54.29;99612.28;2230304;40;20033;-79
2021/06/28 01:32:31;;;;;;;2.88;1.20;;;;;;;23.35;54.13;99624.88;2229287;40;20040;-81
2021/06/28 01:34:03;;;;;;;2.95;1.40;;;;;;;23.37;53.96;99614.56;2227774;40;20033;-80
2021/06/28 01:35:36;;;;;;;3.00;1.40;;;;;;;23.40;53.81;99616.81;2222505;40;20060;-80
2021/06/28 01:37:21;;;;;;;3.30;1.50;;;;;;;23.41;53.94;99617.63;2226518;40;20069;-79
2021/06/28 01:38:54;;;;;;;3.58;1.50;;;;;;;23.40;54.07;99618.69;2222281;40;20444;-78
2021/06/28 01:40:26;;;;;;;2.90;1.38;;;;;;;23.39;53.82;99615.16;2229338;40;20049;-82
2021/06/28 01:41:58;;;;;;;4.82;1.42;;;;;;;23.39;53.72;99617.88;2229830;40;20040;-81
2021/06/28 01:43:30;;;;;;;3.58;1.67;;;;;;;23.36;53.87;99615.63;2229650;40;20025;-81
2021/06/28 01:45:01;;;;;;;2.88;1.30;;;;;;;23.37;53.64;99620.00;2229758;40;20036;-81
2021/06/28 01:46:33;;;;;;;2.58;1.30;;;;;;;23.38;53.86;99616.22;2229730;40;20587;-79
2021/06/28 01:48:05;;;;;;;5.68;1.42;;;;;;;23.37;53.76;99622.72;2226564;40;20039;-80
2021/06/28 01:49:37;;;;;;;2.55;1.17;;;;;;;23.36;53.67;99611.00;2224066;40;20313;-79
2021/06/28 01:51:10;;;;;;;2.78;1.33;;;;;;;23.37;53.63;99609.09;2228976;40;20043;-79
2021/06/28 01:52:42;;;;;;;3.40;1.48;;;;;;;23.38;53.39;99607.22;2228574;40;20029;-79
2021/06/28 01:54:17;;;;;;;3.03;1.38;;;;;;;23.39;53.65;99597.94;2227157;40;20041;-78
2021/06/28 01:55:49;;;;;;;3.10;1.50;;;;;;;23.40;53.48;99603.16;2224686;40;20482;-79
2021/06/28 01:57:20;;;;;;;2.85;1.30;;;;;;;23.43;53.43;99605.41;2228339;40;20051;-79
2021/06/28 01:58:52;;;;;;;3.10;1.25;;;;;;;23.44;53.23;99598.88;2223330;40;20045;-79
2021/06/28 02:00:25;;;;;;;3.47;1.33;;;;;;;23.44;53.39;99596.16;2225112;40;20098;-77
2021/06/28 02:01:57;;;;;;;2.80;1.25;;;;;;;23.42;53.52;99598.31;2223935;40;20025;-80
2021/06/28 02:03:29;;;;;;;2.75;1.02;;;;;;;23.43;53.35;99602.66;2223646;40;20061;-79
2021/06/28 02:05:00;;;;;;;4.53;1.52;;;;;;;23.41;53.66;99606.72;2228864;40;20052;-79
2021/06/28 02:06:32;;;;;;;3.15;1.20;;;;;;;23.38;53.58;99605.31;2229165;40;20033;-79
2021/06/28 02:08:05;;;;;;;3.17;1.33;;;;;;;23.36;53.40;99601.97;2227189;40;20041;-79
2021/06/28 02:09:38;;;;;;;2.97;1.50;;;;;;;23.36;53.65;99610.16;2230703;40;20029;-79
2021/06/28 02:11:10;;;;;;;2.65;1.33;;;;;;;23.34;53.67;99609.56;2228166;40;20417;-79
2021/06/28 02:12:40;;;;;;;2.83;1.23;;;;;;;23.31;53.82;99616.34;2229628;40;20045;-79
2021/06/28 02:14:12;;;;;;;2.70;1.20;;;;;;;23.19;54.35;99612.81;2227857;40;20044;-80
2021/06/28 02:15:44;;;;;;;3.67;1.33;;;;;;;23.16;54.64;99618.72;2230173;40;20037;-80
2021/06/28 02:17:18;;;;;;;3.40;1.48;;;;;;;23.14;54.85;99615.38;2229343;40;20052;-79
2021/06/28 02:18:50;;;;;;;5.05;1.98;;;;;;;23.15;55.30;99619.78;2229592;40;20100;-78
2021/06/28 02:20:21;;;;;;;3.28;1.50;;;;;;;23.16;54.82;99613.25;2227733;40;20032;-79
2021/06/28 02:21:53;;;;;;;6.50;1.90;;;;;;;23.10;54.98;99622.38;2227293;40;20517;-79
2021/06/28 02:23:32;;;;;;;3.00;1.40;;;;;;;23.04;55.21;99621.44;2227305;40;20052;-79
2021/06/28 02:25:07;;;;;;;3.35;1.48;;;;;;;22.98;55.45;99630.56;2226595;40;20024;-79
2021/06/28 02:26:39;;;;;;;4.13;1.50;;;;;;;22.93;55.70;99620.34;2227921;40;20037;-80
2021/06/28 02:28:11;;;;;;;3.70;1.38;;;;;;;22.89;55.62;99611.84;2227733;40;20048;-79
2021/06/28 02:29:43;;;;;;;4.85;1.70;;;;;;;22.94;55.37;99613.84;2227390;40;20033;-78
2021/06/28 02:31:16;;;;;;;3.38;1.38;;;;;;;22.95;55.59;99620.16;2225413;40;20118;-79
2021/06/28 02:32:47;;;;;;;2.97;1.55;;;;;;;22.94;55.71;99613.84;2220961;40;20064;-77
2021/06/28 02:34:19;;;;;;;3.47;1.60;;;;;;;22.89;55.81;99614.56;2224229;40;20064;-79
2021/06/28 02:35:51;;;;;;;3.00;1.40;;;;;;;22.85;55.92;99616.13;2226427;40;20032;-77
2021/06/28 02:37:22;;;;;;;4.25;1.75;;;;;;;22.84;56.19;99619.06;2224847;40;20029;-78
2021/06/28 02:38:55;;;;;;;3.55;1.55;;;;;;;22.85;56.15;99618.84;2227209;40;20036;-81
2021/06/28 02:40:28;;;;;;;3.88;1.42;;;;;;;22.84;56.48;99616.31;2226911;40;20024;-80
2021/06/28 02:41:59;;;;;;;4.63;1.48;;;;;;;22.84;56.57;99619.06;2225775;40;20040;-81
2021/06/28 02:43:30;;;;;;;4.20;1.98;;;;;;;22.77;56.85;99610.16;2224768;40;20025;-77
2021/06/28 02:45:03;;;;;;;3.53;1.65;;;;;;;22.68;57.07;99605.06;2225763;40;20057;-80
2021/06/28 02:46:35;;;;;;;2.88;1.50;;;;;;;22.65;57.44;99610.16;2227086;40;20106;-80
2021/06/28 02:48:08;;;;;;;4.93;1.90;;;;;;;22.64;57.44;99606.59;2226512;40;20036;-81
2021/06/28 02:49:40;;;;;;;4.07;1.70;;;;;;;22.66;57.31;99609.94;2229670;40;20040;-81
2021/06/28 02:51:12;;;;;;;5.10;1.65;;;;;;;22.67;57.43;99614.31;2225874;40;20406;-81
2021/06/28 02:52:44;;;;;;;6.10;1.75;;;;;;;22.65;57.68;99610.97;2225908;40;20059;-81
2021/06/28 02:54:16;;;;;;;4.60;1.60;;;;;;;22.63;57.82;99615.03;2226785;40;20040;-81
2021/06/28 02:55:51;;;;;;;3.60;1.70;;;;;;;22.61;57.79;99617.13;2228093;40;20311;-83
2021/06/28 02:57:22;;;;;;;4.00;1.70;;;;;;;22.61;57.58;99603.53;2228268;40;20079;-80
2021/06/28 02:58:56;;;;;;;4.28;1.70;;;;;;;22.64;57.66;99597.63;2225375;40;20045;-81
2021/06/28 03:00:28;;;;;;;2.95;1.42;;;;;;;22.67;57.40;99597.16;2227491;40;20032;-82
2021/06/28 03:02:00;;;;;;;3.15;1.50;;;;;;;22.68;57.10;99598.78;2226837;40;20028;-81
2021/06/28 03:03:31;;;;;;;6.38;1.52;;;;;;;22.68;57.26;99598.78;2227862;40;20024;-80
2021/06/28 03:05:03;;;;;;;3.17;1.45;;;;;;;22.65;57.26;99599.28;2227193;40;20045;-80
2021/06/28 03:06:34;;;;;;;3.65;1.70;;;;;;;22.65;57.31;99605.53;2221406;40;20037;-79
2021/06/28 03:08:07;;;;;;;3.20;1.50;;;;;;;22.63;57.33;99594.03;2225656;40;20045;-80
2021/06/28 03:09:38;;;;;;;4.18;2.00;;;;;;;22.66;57.56;99592.78;2223322;40;20052;-81
2021/06/28 03:11:11;;;;;;;3.75;1.95;;;;;;;22.62;57.54;99597.00;2225435;40;20028;-81
2021/06/28 03:12:43;;;;;;;3.35;1.75;;;;;;;22.50;57.97;99603.25;2225680;40;20029;-80
2021/06/28 03:14:18;;;;;;;3.17;1.52;;;;;;;22.46;58.22;99601.25;2222491;40;20063;-82
2021/06/28 03:15:49;;;;;;;2.90;1.50;;;;;;;22.46;58.19;99601.25;2224849;40;20045;-81
2021/06/28 03:17:21;;;;;;;4.10;1.40;;;;;;;22.49;57.88;99598.88;2226372;40;20065;-82
2021/06/28 03:18:53;;;;;;;4.95;1.80;;;;;;;22.51;57.80;99598.66;2225261;40;20043;-80
2021/06/28 03:20:24;;;;;;;3.75;1.65;;;;;;;22.49;57.92;99596.16;2227661;40;20041;-80
2021/06/28 03:21:56;;;;;;;3.40;1.70;;;;;;;22.48;57.98;99593.69;2226253;40;20068;-79
2021/06/28 03:23:29;;;;;;;5.47;1.90;;;;;;;22.43;58.31;99597.09;2232176;40;20081;-81
2021/06/28 03:25:01;;;;;;;3.92;1.83;;;;;;;22.39;58.56;99604.03;2226490;40;20404;-82
2021/06/28 03:26:34;;;;;;;4.30;1.67;;;;;;;22.40;58.76;99608.44;2225287;40;20104;-81
2021/06/28 03:28:05;;;;;;;3.47;1.73;;;;;;;22.43;58.61;99613.44;2225259;40;20150;-79
2021/06/28 03:29:38;;;;;;;4.72;2.20;;;;;;;22.44;58.83;99615.09;2226829;40;20080;-81
2021/06/28 03:31:11;;;;;;;5.65;1.80;;;;;;;22.43;58.79;99608.81;2224324;40;20053;-80
2021/06/28 03:32:42;;;;;;;4.45;1.80;;;;;;;22.44;58.76;99604.22;2226912;40;20052;-79
2021/06/28 03:34:14;;;;;;;2.85;1.40;;;;;;;22.40;58.75;99603.84;2226600;40;20048;-79
2021/06/28 03:35:46;;;;;;;3.60;1.45;;;;;;;22.39;59.20;99606.75;2225271;40;20041;-81
2021/06/28 03:37:18;;;;;;;3.22;1.50;;;;;;;22.37;59.39;99603.47;2225853;40;20060;-78
2021/06/28 03:38:50;;;;;;;4.68;2.03;;;;;;;22.40;59.15;99605.72;2223374;40;20061;-78
2021/06/28 03:40:21;;;;;;;4.40;1.80;;;;;;;22.37;59.09;99604.28;2225939;40;20092;-77
2021/06/28 03:41:54;;;;;;;3.40;1.80;;;;;;;22.38;59.47;99605.13;2223243;40;20037;-78
2021/06/28 03:43:25;;;;;;;4.65;1.95;;;;;;;22.38;59.18;99605.13;2225360;40;20056;-77
2021/06/28 03:44:57;;;;;;;5.07;2.30;;;;;;;22.34;59.49;99604.75;2221890;40;20033;-78
2021/06/28 03:46:30;;;;;;;3.72;2.00;;;;;;;22.31;59.89;99593.50;2225195;40;20040;-77
2021/06/28 03:48:01;;;;;;;4.22;2.17;;;;;;;22.29;59.66;99604.63;2224760;40;20028;-78
2021/06/28 03:49:33;;;;;;;3.40;1.83;;;;;;;22.29;59.37;99591.81;2225797;40;20063;-79
2021/06/28 03:51:06;;;;;;;3.63;1.80;;;;;;;22.24;59.52;99588.97;2228050;40;20562;-81
2021/06/28 03:52:37;;;;;;;5.80;2.15;;;;;;;22.25;59.65;99585.19;2228297;40;20110;-81
2021/06/28 03:54:09;;;;;;;4.68;1.98;;;;;;;22.27;60.11;99588.53;2228707;40;20076;-82
2021/06/28 03:55:41;;;;;;;4.18;1.58;;;;;;;22.31;60.20;99588.03;2229684;40;20029;-83
2021/06/28 03:57:13;;;;;;;4.82;2.55;;;;;;;22.33;60.16;99592.22;2228410;40;20037;-82
2021/06/28 03:58:46;;;;;;;4.43;1.70;;;;;;;22.30;60.30;99581.78;2227496;40;20028;-82
2021/06/28 04:00:20;;;;;;;5.00;1.73;;;;;;;22.28;60.32;99582.03;2227729;40;20456;-82
2021/06/28 04:01:52;;;;;;;3.83;1.90;;;;;;;22.24;60.46;99588.97;2227596;40;20032;-83
2021/06/28 04:03:26;;;;;;;5.10;2.08;;;;;;;22.14;60.37;99588.72;2227634;40;20040;-82
2021/06/28 04:04:57;;;;;;;3.50;2.00;;;;;;;22.07;60.59;99588.00;2227701;40;20047;-82
2021/06/28 04:06:29;;;;;;;6.72;2.80;;;;;;;22.03;60.63;99601.25;2227884;40;20033;-82
2021/06/28 04:08:00;;;;;;;4.43;2.50;;;;;;;22.07;60.44;99598.88;2228062;40;20626;-82
2021/06/28 04:09:32;;;;;;;4.68;2.35;;;;;;;22.14;60.17;99596.88;2227582;40;20044;-82
2021/06/28 04:11:05;;;;;;;5.88;2.22;;;;;;;22.21;60.13;99592.16;2226614;40;20040;-83
2021/06/28 04:12:38;;;;;;;4.30;1.95;;;;;;;22.28;60.02;99592.91;2221168;40;20060;-83
2021/06/28 04:14:12;;;;;;;3.67;1.70;;;;;;;22.31;59.83;99590.75;2221490;40;20413;-82
2021/06/28 04:15:44;;;;;;;3.22;1.60;;;;;;;22.28;60.00;99587.47;2221121;40;20037;-81
2021/06/28 04:17:15;;;;;;;3.60;2.03;;;;;;;22.25;59.99;99584.34;2221535;40;20029;-82
2021/06/28 04:18:47;;;;;;;3.85;1.92;;;;;;;22.26;59.89;99583.28;2221218;40;20107;-83
2021/06/28 04:20:21;;;;;;;4.53;2.50;;;;;;;22.28;59.93;99584.75;2221361;40;20033;-82
2021/06/28 04:21:53;;;;;;;4.60;2.30;;;;;;;22.26;60.15;99575.13;2221147;40;20045;-82
2021/06/28 04:23:24;;;;;;;4.20;2.40;;;;;;;22.28;60.18;99573.84;2221397;40;20037;-83
2021/06/28 04:24:55;;;;;;;3.97;1.90;;;;;;;22.25;59.81;99566.16;2220971;40;20048;-80
2021/06/28 04:26:27;;;;;;;5.57;1.70;;;;;;;22.15;59.65;99562.34;2221190;40;20556;-83
2021/06/28 04:28:00;;;;;;;6.50;2.35;;;;;;;22.09;59.92;99572.28;2221399;40;20033;-83
2021/06/28 04:29:31;;;;;;;4.18;2.00;;;;;;;22.09;59.75;99564.91;2221599;40;20052;-82
2021/06/28 04:31:04;;;;;;;4.47;2.03;;;;;;;22.03;59.70;99560.41;2221909;40;20034;-82
2021/06/28 04:32:36;;;;;;;4.38;1.65;;;;;;;21.95;60.00;99567.00;2222092;40;20037;-82
2021/06/28 04:34:15;;;;;;;4.75;1.88;;;;;;;21.89;60.31;99567.09;2221730;40;20036;-83
2021/06/28 04:35:47;;;;;;;3.70;1.70;;;;;;;21.89;60.32;99565.22;2221340;40;20483;-83
2021/06/28 04:37:18;;;;;;;3.95;1.75;;;;;;;21.89;60.21;99575.25;2221490;40;20029;-83
2021/06/28 04:38:50;;;;;;;5.13;1.80;;;;;;;21.91;60.19;99567.72;2222664;40;20059;-82
2021/06/28 04:40:22;;;;;;;3.13;1.60;;;;;;;21.97;60.20;99570.34;2222830;40;20037;-84
2021/06/28 04:41:54;;;;;;;4.75;1.95;;;;;;;22.03;59.96;99571.31;2222703;40;20069;-84
2021/06/28 04:43:27;;;;;;;3.75;1.73;;;;;;;22.04;59.65;99572.97;2229330;40;20128;-82
2021/06/28 04:44:58;;;;;;;4.90;1.85;;;;;;;22.05;59.58;99573.78;2229145;40;20032;-82
2021/06/28 04:46:30;;;;;;;6.00;1.80;;;;;;;22.08;59.66;99576.06;2228941;40;20041;-80
2021/06/28 04:48:02;;;;;;;4.45;1.60;;;;;;;22.14;59.09;99566.94;2229020;40;20036;-83
2021/06/28 04:49:33;;;;;;;3.80;1.50;;;;;;;22.22;59.32;99569.31;2229112;40;20040;-83
2021/06/28 04:51:05;;;;;;;3.60;1.88;;;;;;;22.27;58.88;99574.91;2228831;40;20032;-83
2021/06/28 04:52:38;;;;;;;4.03;1.90;;;;;;;22.26;58.68;99575.97;2229062;40;20048;-83
2021/06/28 04:54:10;;;;;;;3.55;1.60;;;;;;;22.25;59.02;99568.03;2229100;40;20036;-83
2021/06/28 04:55:41;;;;;;;3.78;1.95;;;;;;;22.28;58.95;99573.00;2229175;40;20043;-83
2021/06/28 04:57:16;;;;;;;4.80;1.90;;;;;;;22.35;58.76;99570.19;2229142;40;20588;-83
2021/06/28 04:58:49;;;;;;;4.78;1.95;;;;;;;22.41;58.71;99577.44;2229412;40;20545;-80
2021/06/28 05:00:23;;;;;;;3.58;1.65;;;;;;;22.46;58.59;99574.00;2231101;40;20055;-79
2021/06/28 05:01:55;;;;;;;5.00;1.70;;;;;;;22.44;58.33;99572.34;2230127;40;20051;-83
2021/06/28 05:03:27;;;;;;;4.43;1.70;;;;;;;22.47;57.82;99575.69;2229178;40;20043;-80
2021/06/28 05:04:58;;;;;;;4.10;2.05;;;;;;;22.44;58.32;99580.53;2224272;40;20104;-79
2021/06/28 05:06:30;;;;;;;3.78;1.60;;;;;;;22.50;58.08;99580.66;2227407;40;20028;-81
2021/06/28 05:08:01;;;;;;;3.60;1.65;;;;;;;22.54;57.99;99576.38;2223395;40;20059;-80
2021/06/28 05:09:34;;;;;;;4.68;1.83;;;;;;;22.59;58.03;99577.34;2228748;40;20037;-80
2021/06/28 05:11:06;;;;;;;3.58;1.80;;;;;;;22.65;58.13;99578.28;2230078;40;20029;-83
2021/06/28 05:12:37;;;;;;;3.97;1.75;;;;;;;22.69;58.23;99578.66;2229231;40;20047;-79
2021/06/28 05:14:11;;;;;;;4.15;1.73;;;;;;;22.63;58.12;99585.88;2229882;40;20698;-83
2021/06/28 05:15:43;;;;;;;4.07;2.05;;;;;;;22.53;58.71;99591.09;2227995;40;20673;-82
2021/06/28 05:17:15;;;;;;;5.95;2.10;;;;;;;22.44;59.15;99598.75;2227557;40;20033;-83
2021/06/28 05:18:47;;;;;;;7.55;2.47;;;;;;;22.36;59.81;99597.19;2229629;40;20052;-82
2021/06/28 05:20:18;;;;;;;7.80;2.70;;;;;;;22.28;60.47;99594.78;2228794;40;20688;-82
2021/06/28 05:21:49;;;;;;;7.65;2.80;;;;;;;22.21;61.34;99594.06;2229818;40;20033;-82
2021/06/28 05:23:21;;;;;;;6.65;2.50;;;;;;;22.16;62.23;99602.94;2227667;40;20044;-82
2021/06/28 05:24:53;;;;;;;5.15;2.25;;;;;;;22.07;62.92;99601.59;2227491;40;20033;-82
2021/06/28 05:26:25;;;;;;;5.20;2.15;;;;;;;22.01;63.45;99605.25;2227213;40;20306;-80
2021/06/28 05:27:58;;;;;;;5.30;2.25;;;;;;;21.95;63.56;99618.72;2228516;40;20040;-83
2021/06/28 05:29:31;;;;;;;7.20;2.33;;;;;;;21.93;63.84;99607.22;2228029;40;20025;-82
2021/06/28 05:31:03;;;;;;;13.05;2.63;;;;;;;21.95;63.75;99615.16;2225440;40;20126;-80
2021/06/28 05:32:36;;;;;;;5.22;2.63;;;;;;;22.01;63.40;99610.69;2224536;40;20082;-81
2021/06/28 05:34:07;;;;;;;4.35;1.83;;;;;;;22.09;62.98;99618.53;2229606;40;20440;-80
2021/06/28 05:35:39;;;;;;;5.72;2.53;;;;;;;22.15;62.67;99620.31;2228398;40;20040;-80
2021/06/28 05:37:10;;;;;;;3.83;1.80;;;;;;;22.13;62.36;99614.28;2227006;40;20060;-80
2021/06/28 05:38:42;;;;;;;3.42;1.73;;;;;;;22.11;61.87;99608.22;2228400;40;20052;-81
2021/06/28 05:40:14;;;;;;;6.38;2.45;;;;;;;22.12;61.96;99602.56;2227287;40;20444;-80
2021/06/28 05:41:46;;;;;;;7.72;2.63;;;;;;;22.14;62.01;99613.22;2228616;40;20149;-81
2021/06/28 05:43:18;;;;;;;7.97;2.42;;;;;;;22.11;62.23;99610.94;2229585;40;20289;-82
2021/06/28 05:44:51;;;;;;;7.10;1.95;;;;;;;22.05;62.27;99610.00;2229582;40;20029;-82
2021/06/28 05:46:23;;;;;;;4.05;2.13;;;;;;;22.15;62.18;99606.72;2229457;40;20032;-83
2021/06/28 05:47:54;;;;;;;4.25;2.10;;;;;;;22.29;61.71;99605.44;2228878;40;20060;-82
2021/06/28 05:49:25;;;;;;;5.38;2.35;;;;;;;22.36;61.50;99601.81;2229719;40;20048;-80
2021/06/28 05:50:57;;;;;;;4.35;1.95;;;;;;;22.34;61.23;99595.75;2229961;40;20103;-79
2021/06/28 05:52:28;;;;;;;6.63;2.00;;;;;;;22.35;60.83;99602.88;2229164;40;20049;-81
2021/06/28 05:54:00;;;;;;;4.40;1.60;;;;;;;22.43;60.36;99602.56;2229241;40;20041;-79
2021/06/28 05:55:31;;;;;;;5.05;1.88;;;;;;;22.49;59.97;99606.22;2230272;40;20617;-80
2021/06/28 05:57:03;;;;;;;5.20;2.10;;;;;;;22.61;59.95;99598.06;2230138;40;20044;-82
2021/06/28 05:58:35;;;;;;;3.53;1.85;;;;;;;22.68;59.58;99606.94;2230725;40;20384;-80
2021/06/28 06:00:12;;;;;;;8.02;2.15;;;;;;;22.81;59.35;99604.00;2229786;40;20052;-81
2021/06/28 06:01:44;;;;;;;5.85;2.20;;;;;;;22.89;59.05;99608.28;2225212;40;20021;-80
2021/06/28 06:03:16;;;;;;;4.53;2.30;;;;;;;22.95;59.06;99603.78;2227986;40;20298;-79
2021/06/28 06:04:47;;;;;;;4.95;2.03;;;;;;;22.97;58.53;99607.09;2229359;40;20086;-78
2021/06/28 06:06:19;;;;;;;3.80;1.83;;;;;;;23.02;58.71;99604.50;2230876;40;20098;-78
2021/06/28 06:07:50;;;;;;;3.55;1.88;;;;;;;23.08;58.77;99603.53;2230490;40;20028;-79
2021/06/28 06:09:22;;;;;;;7.53;2.28;;;;;;;23.10;58.72;99609.56;2228119;40;20044;-81
2021/06/28 06:10:56;;;;;;;4.25;1.60;;;;;;;23.12;58.73;99610.19;2228338;40;20424;-80
2021/06/28 06:12:28;;;;;;;4.20;2.03;;;;;;;23.11;58.93;99608.50;2228246;40;20191;-80
2021/06/28 06:14:00;;;;;;;12.07;4.07;;;;;;;23.13;58.96;99616.44;2226687;40;20036;-80
2021/06/28 06:15:33;;;;;;;7.63;4.32;;;;;;;23.10;59.46;99615.03;2228811;40;20037;-79
2021/06/28 06:17:05;;;;;;;6.93;3.67;;;;;;;23.05;59.99;99618.47;2229243;40;20035;-80
2021/06/28 06:18:36;;;;;;;10.35;3.45;;;;;;;22.98;60.56;99615.03;2230457;40;20038;-81
2021/06/28 06:20:10;;;;;;;6.68;3.30;;;;;;;22.90;61.18;99621.66;2229248;40;20039;-81
2021/06/28 06:21:43;;;;;;;6.55;2.65;;;;;;;22.85;61.50;99612.53;2229207;40;20037;-82
2021/06/28 06:23:16;;;;;;;7.85;2.97;;;;;;;22.84;61.60;99611.72;2229512;40;20029;-81
2021/06/28 06:24:48;;;;;;;10.88;3.05;;;;;;;22.88;61.67;99621.06;2229180;40;20032;-81
2021/06/28 06:26:20;;;;;;;5.60;2.58;;;;;;;22.88;61.60;99612.91;2222861;40;20473;-81
2021/06/28 06:27:52;;;;;;;4.97;2.53;;;;;;;22.93;61.30;99616.81;2222776;40;20041;-84
2021/06/28 06:29:23;;;;;;;4.38;2.15;;;;;;;22.95;61.28;99606.53;2225179;40;20036;-78
2021/06/28 06:30:57;;;;;;;5.25;2.50;;;;;;;23.05;60.73;99602.13;2222952;40;20064;-80
2021/06/28 06:32:28;;;;;;;6.10;3.25;;;;;;;23.08;60.51;99602.72;2229686;40;20040;-78
2021/06/28 06:34:00;;;;;;;6.65;4.03;;;;;;;22.98;60.68;99603.28;2217461;40;20172;-78
2021/06/28 06:35:33;;;;;;;5.50;2.88;;;;;;;22.99;60.59;99596.78;2216301;40;20597;-84
2021/06/28 06:37:05;;;;;;;7.05;2.67;;;;;;;23.06;60.39;99605.66;2226093;40;20028;-79
2021/06/28 06:38:37;;;;;;;5.60;2.50;;;;;;;23.13;59.89;99600.94;2229805;40;20075;-80
2021/06/28 06:40:10;;;;;;;5.10;2.58;;;;;;;23.21;59.47;99605.19;2230177;40;20380;-80
2021/06/28 06:41:42;;;;;;;8.40;2.17;;;;;;;23.30;59.19;99605.69;2228920;40;20041;-80
2021/06/28 06:43:14;;;;;;;5.22;2.40;;;;;;;23.38;58.58;99601.75;2228924;40;20025;-79
2021/06/28 06:44:46;;;;;;;4.93;2.63;;;;;;;23.46;58.22;99599.47;2229098;40;20097;-82
2021/06/28 06:46:19;;;;;;;4.47;2.20;;;;;;;23.63;57.80;99598.72;2230500;40;20056;-81
2021/06/28 06:47:51;;;;;;;3.90;1.98;;;;;;;23.74;57.76;99594.31;2225531;40;20040;-82
2021/06/28 06:49:23;;;;;;;3.80;2.10;;;;;;;23.84;57.04;99602.69;2232954;40;20025;-81
2021/06/28 06:50:55;;;;;;;5.70;2.38;;;;;;;23.98;56.89;99605.97;2229489;40;20048;-80
2021/06/28 06:52:27;;;;;;;9.32;2.10;;;;;;;24.16;56.22;99609.56;2228271;40;20064;-82
2021/06/28 06:53:59;;;;;;;5.38;2.17;;;;;;;24.32;55.68;99611.50;2229110;40;20052;-77
2021/06/28 06:55:30;;;;;;;4.38;2.60;;;;;;;24.46;55.49;99617.47;2225232;40;20033;-81
2021/06/28 06:57:01;;;;;;;6.13;2.45;;;;;;;24.58;54.70;99622.84;2226585;40;20029;-82
2021/06/28 06:58:34;;;;;;;6.25;3.22;;;;;;;24.67;54.77;99624.09;2227904;40;20036;-82
2021/06/28 07:00:10;;;;;;;15.43;11.98;;;;;;;24.82;54.65;99617.25;2227575;40;20032;-83
2021/06/28 07:01:43;;;;;;;7.28;4.22;;;;;;;24.81;53.67;99618.34;2221365;40;20033;-82
2021/06/28 07:03:15;;;;;;;7.47;3.20;;;;;;;24.77;53.71;99626.22;2221430;40;20409;-81
2021/06/28 07:04:46;;;;;;;5.85;2.88;;;;;;;24.83;53.67;99622.47;2221321;40;20029;-80
2021/06/28 07:06:18;;;;;;;7.15;2.83;;;;;;;24.96;53.64;99615.81;2221752;40;20052;-81
2021/06/28 07:07:50;;;;;;;5.40;2.80;;;;;;;25.03;53.75;99618.38;2221502;40;20049;-81
2021/06/28 07:09:22;;;;;;;8.60;2.95;;;;;;;25.15;53.37;99618.28;2221383;40;20044;-80
2021/06/28 07:10:54;;;;;;;6.68;2.95;;;;;;;25.31;53.21;99611.97;2220965;40;20025;-80
2021/06/28 07:12:26;;;;;;;7.72;2.92;;;;;;;25.30;52.26;99618.50;2221204;40;20037;-80
2021/06/28 07:13:59;;;;;;;7.45;2.85;;;;;;;25.23;51.88;99626.03;2221904;40;20056;-81